»·PEaware :: N239ST KBLH-KSNA

N239ST :: KBLH-KSNA

FLIGHT INFORMATION

Flight Status: Arrived
Operator: Privately registered:
United States
More flights under this callsign
Pilot: John C. (9438)
Aircraft: BEECH AIRCRAFT DEBONAIR BONANZA
(BE33)
More flights by this aircraft type
Origin: KBLH Blythe
United States
Destination: KSNA John Wayne-Orange Co
United States
More flights between these airports :: More routes between these airports
Route: NW
File this flight plan on PilotEdge
Remarks:
Altitude:
(Current/Filed)
6,500ft
Speed:
(Current/Filed)
140kts
Departed: 27-Oct-17 10:24 AM
Arrived: 27-Oct-17 11:37 AM
Distance/Time
Traveled:
158nm/1:12
Distance/Time
To Go:
Arrived

Flight Plot

Page will automatically refresh every two minutes.

Flight plan parsing failed; only flown route is shown


Map Options




Map Legend


Flown Route
Filed Route
Departure Airport
Arrival Airport
Navaid (VOR, NDB)
Fix

Horizontal Profiles

Position Reports

Time Latitude Longitude Heading Altitude Ground
Speed
27-Oct-17 10:22 33.614055 -114.713082 90 400ft 0kts
27-Oct-17 10:23 33.614055 -114.713082 90 400ft 0kts
27-Oct-17 10:24 33.614059 -114.713046 73 400ft 2kts
27-Oct-17 10:25 33.615175 -114.707712 86 400ft 30kts
27-Oct-17 10:26 33.616009 -114.706272 345 401ft 0kts
27-Oct-17 10:27 33.616009 -114.706272 345 401ft 0kts
27-Oct-17 10:28 33.616013 -114.706274 345 401ft 0kts
27-Oct-17 10:29 33.616592 -114.712332 271 401ft 80kts
27-Oct-17 10:30 33.611185 -114.743202 264 1160ft 96kts
27-Oct-17 10:31 33.610567 -114.774909 288 1734ft 88kts
27-Oct-17 10:32 33.615115 -114.803836 283 2443ft 90kts
27-Oct-17 10:33 33.617964 -114.834213 280 3224ft 92kts
27-Oct-17 10:34 33.619718 -114.864725 279 3953ft 90kts
27-Oct-17 10:35 33.620858 -114.894972 278 4555ft 91kts
27-Oct-17 10:36 33.621655 -114.925390 277 5173ft 93kts
27-Oct-17 10:37 33.622291 -114.957503 276 5700ft 99kts
27-Oct-17 10:38 33.622787 -114.991338 276 6207ft 103kts
27-Oct-17 10:39 33.623261 -115.027916 275 6507ft 121kts
27-Oct-17 10:40 33.623729 -115.072214 274 6504ft 140kts
27-Oct-17 10:41 33.624132 -115.119637 274 6502ft 145kts
27-Oct-17 10:42 33.624538 -115.168677 274 6501ft 148kts
27-Oct-17 10:43 33.625169 -115.218704 272 6457ft 154kts
27-Oct-17 10:44 33.625677 -115.270779 270 6449ft 157kts
27-Oct-17 10:45 33.625834 -115.323798 270 6449ft 160kts
27-Oct-17 10:46 33.626106 -115.377207 270 6446ft 160kts
27-Oct-17 10:47 33.626417 -115.430922 270 6447ft 160kts
27-Oct-17 10:48 33.626735 -115.484326 270 6491ft 160kts
27-Oct-17 10:49 33.627025 -115.538325 270 6447ft 161kts
27-Oct-17 10:50 33.627331 -115.591828 271 6450ft 160kts
27-Oct-17 10:51 33.627585 -115.645993 270 6460ft 162kts
27-Oct-17 10:52 33.627568 -115.698608 270 6465ft 160kts
27-Oct-17 10:53 33.627645 -115.752075 270 6467ft 160kts
27-Oct-17 10:54 33.627743 -115.805334 270 6467ft 159kts
27-Oct-17 10:55 33.627913 -115.859218 270 6465ft 161kts
27-Oct-17 10:56 33.628079 -115.912587 270 6465ft 159kts
27-Oct-17 10:57 33.628200 -115.965844 270 6467ft 159kts
27-Oct-17 10:58 33.644612 -116.011826 311 6467ft 158kts
27-Oct-17 10:59 33.673714 -116.051143 311 6466ft 157kts
27-Oct-17 11:00 33.702175 -116.091307 307 6466ft 157kts
27-Oct-17 11:01 33.728380 -116.133585 306 6466ft 157kts
27-Oct-17 11:02 33.753827 -116.174581 306 6466ft 158kts
27-Oct-17 11:03 33.780039 -116.216770 307 6466ft 158kts
27-Oct-17 11:04 33.806150 -116.259051 306 6497ft 155kts
27-Oct-17 11:05 33.831043 -116.299125 307 6655ft 148kts
27-Oct-17 11:06 33.856328 -116.339135 307 6655ft 152kts
27-Oct-17 11:07 33.874263 -116.369048 297 6654ft 152kts
27-Oct-17 11:08 33.893572 -116.414836 296 6608ft 158kts
27-Oct-17 11:09 33.909739 -116.465087 287 6519ft 161kts
27-Oct-17 11:10 33.919034 -116.517743 282 6491ft 159kts
27-Oct-17 11:11 33.925986 -116.570225 277 6492ft 158kts
27-Oct-17 11:12 33.930380 -116.622772 277 6485ft 158kts
27-Oct-17 11:13 33.934843 -116.675247 276 6498ft 159kts
27-Oct-17 11:14 33.936039 -116.725353 271 6483ft 159kts
27-Oct-17 11:15 33.936689 -116.778669 271 6487ft 161kts
27-Oct-17 11:16 33.937044 -116.831987 271 6605ft 154kts
27-Oct-17 11:17 33.938743 -116.883192 281 6839ft 156kts
27-Oct-17 11:18 33.954256 -116.934805 292 6833ft 167kts
27-Oct-17 11:19 33.971097 -116.987185 292 6808ft 167kts
27-Oct-17 11:20 33.988544 -117.039818 291 6642ft 176kts
27-Oct-17 11:21 33.988145 -117.097196 260 6520ft 170kts
27-Oct-17 11:22 33.970734 -117.148739 242 6490ft 162kts
27-Oct-17 11:23 33.949834 -117.196002 242 6497ft 159kts
27-Oct-17 11:24 33.929007 -117.242969 242 6495ft 158kts
27-Oct-17 11:25 33.908356 -117.289459 242 6493ft 157kts
27-Oct-17 11:26 33.891655 -117.327192 242 6500ft 157kts
27-Oct-17 11:27 33.874429 -117.375331 252 6492ft 157kts
27-Oct-17 11:28 33.864072 -117.426211 261 6363ft 160kts
27-Oct-17 11:29 33.857571 -117.479124 262 5887ft 159kts
27-Oct-17 11:30 33.851482 -117.529292 262 5427ft 155kts
27-Oct-17 11:31 33.845460 -117.578944 262 4969ft 154kts
27-Oct-17 11:32 33.839305 -117.630685 262 4518ft 158kts
27-Oct-17 11:33 33.833992 -117.676457 261 4240ft 147kts
27-Oct-17 11:34 33.828189 -117.722101 251 3727ft 133kts
27-Oct-17 11:35 33.815763 -117.763577 249 3331ft 125kts
27-Oct-17 11:36 33.803102 -117.795404 207 3304ft 96kts
27-Oct-17 11:37 33.772631 -117.804780 192 2632ft 122kts
27-Oct-17 11:38 33.743430 -117.819697 214 1503ft 98kts
27-Oct-17 11:39 33.722992 -117.835775 212 1074ft 84kts
27-Oct-17 11:40 33.701764 -117.850272 206 497ft 92kts
27-Oct-17 11:41 33.681337 -117.863351 206 91ft 74kts
27-Oct-17 11:42 33.673817 -117.867463 121 59ft 0kts
27-Oct-17 11:43 33.672092 -117.868103 209 60ft 23kts
27-Oct-17 11:44 33.666182 -117.873583 215 59ft 20kts
27-Oct-17 11:45 33.666107 -117.873339 23 59ft 0kts
27-Oct-17 11:46 33.666107 -117.873338 23 59ft 0kts

Navigation Log

Ident Type
Flight plan parsing failed, navigation log unavailable